Ada, Ohio
Current Conditions -  °F | °C
As of 12:01 AM on Monday 24 Nov 2014 (Local Time) from KAOH Reporting Station
Light Rain Light Rain  
Wind Chill: 56°   Ceiling: 1000
Heat Index: 56°   Visibility: 7mi
Dew Point: 53°   Wind: 24mph
Humidity: 90%   Direction: 160°SSE
Pressure: 29.2"   Gusts: 31mph
Location:  40.78°N, 83.82°W
Report Text: KAOH 240501Z AUTO 16021G27KT 7SM -RA BKN010 OVC015 13/12 A2920 RMK AO2 PK WND 15027/0500 RAB0454 CIG 008V012 P0001 T01330117
Loading
Personal Weather Stations






























Interactive Weather Map New forecast layout! Learn more

10-Day Weather Forecast

Advertisements
Track Severe Weather on mobile